createdAt,value
2018-11-29T00:01:05.017Z,95.70
2018-11-29T00:04:08.364Z,95.70
2018-11-29T00:07:27.454Z,95.70
2018-11-29T00:10:30.749Z,95.60
2018-11-29T00:13:34.048Z,95.60
2018-11-29T00:16:37.336Z,95.70
2018-11-29T00:19:40.681Z,95.50
2018-11-29T00:22:45.145Z,95.50
2018-11-29T00:25:48.424Z,95.50
2018-11-29T00:28:51.672Z,95.50
2018-11-29T00:31:54.952Z,95.50
2018-11-29T00:34:58.236Z,95.40
2018-11-29T00:38:01.572Z,95.50
2018-11-29T00:41:05.157Z,95.50
2018-11-29T00:44:08.441Z,95.50
2018-11-29T00:47:11.731Z,95.50
2018-11-29T00:50:16.040Z,95.40
2018-11-29T00:53:19.324Z,95.40
2018-11-29T00:56:22.605Z,95.40
2018-11-29T00:59:25.880Z,95.40
2018-11-29T01:02:29.180Z,95.50
2018-11-29T01:05:32.463Z,95.50
2018-11-29T01:08:35.788Z,95.40
2018-11-29T01:11:39.057Z,95.40
2018-11-29T01:14:42.332Z,95.40
2018-11-29T01:17:46.940Z,95.10
2018-11-29T01:20:51.351Z,95.30
2018-11-29T01:23:54.652Z,95.40
2018-11-29T01:26:57.904Z,95.40
2018-11-29T01:30:01.208Z,95.50
2018-11-29T01:33:04.516Z,95.40
2018-11-29T01:36:07.821Z,95.30
2018-11-29T01:39:11.085Z,95.30
2018-11-29T01:42:14.364Z,95.50
2018-11-29T01:45:17.666Z,95.30
2018-11-29T01:48:20.969Z,95.30
2018-11-29T01:51:24.868Z,95.40
2018-11-29T01:54:28.132Z,95.20
2018-11-29T01:57:31.409Z,95.20
2018-11-29T02:00:34.692Z,95.00
2018-11-29T02:03:38.091Z,95.00
2018-11-29T02:06:41.395Z,95.10
2018-11-29T02:09:44.653Z,95.10
2018-11-29T02:12:48.024Z,95.10
2018-11-29T02:15:51.391Z,95.50
2018-11-29T02:18:54.664Z,95.20
2018-11-29T02:21:57.958Z,95.20
2018-11-29T02:25:01.269Z,95.20
2018-11-29T02:28:04.682Z,95.20
2018-11-29T02:31:08.034Z,95.30
2018-11-29T02:34:11.306Z,95.20
2018-11-29T02:37:14.637Z,95.10
2018-11-29T02:40:18.391Z,95.20
2018-11-29T02:43:21.703Z,95.20
2018-11-29T02:46:24.991Z,95.30
2018-11-29T02:49:28.293Z,95.40
2018-11-29T02:52:31.593Z,95.40
2018-11-29T02:55:34.934Z,95.40
2018-11-29T02:58:38.208Z,95.40
2018-11-29T03:01:41.492Z,95.30
2018-11-29T03:04:44.744Z,95.40
2018-11-29T03:07:48.050Z,95.40
2018-11-29T03:10:51.300Z,95.50
2018-11-29T03:13:54.577Z,95.60
2018-11-29T03:16:57.907Z,95.70
2018-11-29T03:20:01.229Z,95.70
2018-11-29T03:23:05.019Z,95.80
2018-11-29T03:26:08.333Z,95.90
2018-11-29T03:29:11.576Z,95.70
2018-11-29T03:32:14.974Z,95.80
2018-11-29T03:35:18.293Z,95.80
2018-11-29T03:38:21.611Z,95.90
2018-11-29T03:41:24.912Z,95.90
2018-11-29T03:44:28.220Z,95.90
2018-11-29T03:47:31.521Z,96.00
2018-11-29T03:50:34.826Z,96.00
2018-11-29T03:53:39.589Z,95.90
2018-11-29T03:56:42.861Z,96.00
2018-11-29T03:59:46.122Z,96.00
2018-11-29T04:02:49.416Z,96.00
2018-11-29T04:05:52.704Z,96.30
2018-11-29T04:08:56.051Z,96.00
2018-11-29T04:11:59.326Z,96.00
2018-11-29T04:15:02.686Z,96.00
2018-11-29T04:18:06.412Z,96.00
2018-11-29T04:21:09.688Z,96.00
2018-11-29T04:24:12.989Z,96.00
2018-11-29T04:27:16.355Z,96.00
2018-11-29T04:30:19.693Z,96.00
2018-11-29T04:33:23.223Z,96.10
2018-11-29T04:36:26.672Z,96.10
2018-11-29T04:39:29.974Z,96.20
2018-11-29T04:42:33.261Z,96.20
2018-11-29T04:46:49.172Z,96.20
2018-11-29T04:49:52.436Z,96.40
2018-11-29T04:52:55.724Z,96.70
2018-11-29T04:55:59.022Z,96.80
2018-11-29T04:59:02.362Z,96.80
2018-11-29T05:02:06.276Z,96.80
2018-11-29T05:05:10.145Z,96.80
2018-11-29T05:08:13.409Z,96.80
2018-11-29T05:11:16.719Z,96.60
2018-11-29T05:14:19.984Z,96.60
2018-11-29T05:17:23.288Z,96.60
2018-11-29T05:20:26.557Z,96.60
2018-11-29T05:23:29.896Z,96.80
2018-11-29T05:26:33.221Z,96.80
2018-11-29T05:29:36.513Z,96.80
2018-11-29T05:32:39.860Z,96.80
2018-11-29T05:35:43.197Z,96.80
2018-11-29T05:38:46.484Z,96.70
2018-11-29T05:41:49.837Z,96.80
2018-11-29T05:44:53.127Z,96.80
2018-11-29T05:47:56.396Z,96.80
2018-11-29T05:50:59.652Z,97.00
2018-11-29T05:54:02.957Z,96.70
2018-11-29T05:57:06.453Z,96.80
2018-11-29T06:00:12.977Z,96.80
2018-11-29T06:03:16.241Z,96.80
2018-11-29T06:06:19.560Z,96.80
2018-11-29T06:09:22.810Z,96.70
2018-11-29T06:12:26.129Z,96.70
2018-11-29T06:15:29.424Z,96.70
2018-11-29T06:18:32.716Z,96.80
2018-11-29T06:21:35.980Z,96.80
2018-11-29T06:24:39.286Z,97.00
2018-11-29T06:27:43.392Z,96.90
2018-11-29T06:30:46.677Z,96.80
2018-11-29T06:33:50.182Z,96.90
2018-11-29T06:36:53.465Z,96.90
2018-11-29T06:39:56.719Z,96.80
2018-11-29T06:43:00.029Z,96.70
2018-11-29T06:46:03.316Z,96.70
2018-11-29T06:49:06.648Z,96.60
2018-11-29T06:52:09.964Z,96.60
2018-11-29T06:55:17.384Z,96.50
2018-11-29T06:58:20.656Z,96.50
2018-11-29T07:01:24.062Z,96.40
2018-11-29T07:04:27.341Z,96.40
2018-11-29T07:07:30.628Z,96.40
2018-11-29T07:10:34.672Z,96.40
2018-11-29T07:13:37.992Z,96.30
2018-11-29T07:16:41.304Z,96.10
2018-11-29T07:19:44.592Z,95.90
2018-11-29T07:22:47.881Z,96.00
2018-11-29T07:25:51.185Z,95.80
2018-11-29T07:28:54.496Z,95.80
2018-11-29T07:31:57.803Z,95.60
2018-11-29T07:35:01.113Z,95.60
2018-11-29T07:38:04.445Z,95.60
2018-11-29T07:41:07.735Z,95.60
2018-11-29T07:44:11.153Z,95.50
2018-11-29T07:47:14.481Z,95.50
2018-11-29T07:50:20.428Z,95.20
2018-11-29T07:53:23.716Z,95.00
2018-11-29T07:56:27.032Z,94.90
2018-11-29T07:59:30.352Z,95.00
2018-11-29T08:02:33.697Z,94.80
2018-11-29T08:05:36.985Z,94.70
2018-11-29T08:08:40.293Z,93.00
2018-11-29T08:11:43.549Z,89.70
2018-11-29T08:14:46.877Z,86.20
2018-11-29T08:17:50.190Z,90.60
2018-11-29T08:20:53.476Z,92.30
2018-11-29T08:23:56.776Z,93.10
2018-11-29T08:27:00.064Z,92.50
2018-11-29T08:30:08.153Z,92.80
2018-11-29T08:33:11.485Z,92.70
2018-11-29T08:36:14.760Z,92.70
2018-11-29T08:39:18.016Z,92.70
2018-11-29T08:42:21.270Z,92.50
2018-11-29T08:45:24.557Z,92.40
2018-11-29T08:48:27.800Z,92.20
2018-11-29T08:51:31.133Z,92.00
2018-11-29T08:54:34.385Z,92.20
2018-11-29T08:57:37.740Z,92.00
2018-11-29T09:00:41.037Z,92.00
2018-11-29T09:03:44.317Z,91.50
2018-11-29T09:06:47.621Z,91.40
2018-11-29T09:09:50.945Z,91.30
2018-11-29T09:12:54.228Z,91.30
2018-11-29T09:15:57.537Z,91.30
2018-11-29T09:19:00.825Z,91.20
2018-11-29T09:22:04.165Z,90.80
2018-11-29T09:25:10.112Z,90.90
2018-11-29T09:28:13.420Z,90.30
2018-11-29T09:31:16.726Z,90.10
2018-11-29T09:34:20.056Z,90.10
2018-11-29T09:37:23.341Z,90.10
2018-11-29T09:40:26.664Z,90.30
2018-11-29T09:43:29.940Z,90.00
2018-11-29T09:46:33.260Z,89.90
2018-11-29T09:49:36.505Z,90.60
2018-11-29T09:52:40.317Z,90.00
2018-11-29T09:55:43.568Z,90.00
2018-11-29T09:58:46.860Z,90.30
2018-11-29T10:01:50.161Z,90.40
2018-11-29T10:04:53.441Z,90.60
2018-11-29T10:07:56.720Z,90.90
2018-11-29T10:11:00.024Z,90.70
2018-11-29T10:14:03.336Z,90.70
2018-11-29T10:17:06.683Z,90.20
2018-11-29T10:20:11.741Z,90.10
2018-11-29T10:23:15.025Z,90.30
2018-11-29T10:26:18.281Z,90.30
2018-11-29T10:29:21.560Z,90.00
2018-11-29T10:32:24.890Z,90.20
2018-11-29T10:35:28.186Z,90.10
2018-11-29T10:38:31.461Z,90.20
2018-11-29T10:41:34.749Z,90.30
2018-11-29T10:44:38.062Z,89.80
2018-11-29T10:47:42.605Z,90.00
2018-11-29T10:50:45.925Z,89.50
2018-11-29T10:53:49.201Z,89.10
2018-11-29T10:56:52.481Z,88.50
2018-11-29T10:59:55.771Z,89.70
2018-11-29T11:03:07.229Z,89.30
2018-11-29T11:06:10.560Z,89.00
2018-11-29T11:09:13.906Z,89.80
2018-11-29T11:12:18.786Z,89.80
2018-11-29T11:15:20.578Z,89.20
2018-11-29T11:18:23.853Z,88.80
2018-11-29T11:21:27.153Z,89.40
2018-11-29T11:24:30.469Z,89.00
2018-11-29T11:27:33.752Z,89.40
2018-11-29T11:30:39.612Z,88.60
2018-11-29T11:33:42.884Z,89.40
2018-11-29T11:36:46.209Z,88.80
2018-11-29T11:39:49.496Z,89.50
2018-11-29T11:42:52.754Z,88.90
2018-11-29T11:45:56.085Z,89.90
2018-11-29T11:48:59.430Z,89.10
2018-11-29T11:52:02.711Z,89.40
2018-11-29T11:55:07.407Z,90.20
2018-11-29T11:58:10.664Z,89.50
2018-11-29T12:01:13.938Z,89.80
2018-11-29T12:04:17.468Z,90.00
2018-11-29T12:07:20.812Z,90.40
2018-11-29T12:10:24.116Z,90.70
2018-11-29T12:13:27.372Z,90.90
2018-11-29T12:16:30.675Z,91.40
2018-11-29T12:19:33.945Z,91.60
2018-11-29T12:22:37.301Z,92.00
2018-11-29T12:25:40.591Z,92.00
2018-11-29T12:28:43.864Z,92.10
2018-11-29T12:31:47.161Z,92.70
2018-11-29T12:34:50.477Z,93.00
2018-11-29T12:37:53.765Z,93.20
2018-11-29T12:40:57.157Z,93.90
2018-11-29T12:44:00.410Z,94.60
2018-11-29T12:47:03.720Z,95.10
2018-11-29T12:50:12.600Z,94.90
2018-11-29T12:53:15.852Z,95.20
2018-11-29T12:56:19.417Z,95.60
2018-11-29T12:59:22.690Z,95.70
2018-11-29T13:02:25.985Z,95.30
2018-11-29T13:05:29.345Z,95.10
2018-11-29T13:08:32.617Z,95.70
2018-11-29T13:11:35.921Z,95.30
2018-11-29T13:14:39.213Z,95.50
2018-11-29T13:17:42.550Z,94.80
2018-11-29T13:20:45.841Z,94.50
2018-11-29T13:23:49.140Z,94.40
2018-11-29T13:26:52.443Z,94.60
2018-11-29T13:29:55.709Z,94.40
2018-11-29T13:32:59.069Z,93.50
2018-11-29T13:36:02.453Z,93.80
2018-11-29T13:39:09.383Z,93.50
2018-11-29T13:42:11.382Z,94.10
2018-11-29T13:45:14.677Z,93.50
2018-11-29T13:48:17.946Z,93.90
2018-11-29T13:51:21.273Z,93.50
2018-11-29T13:54:24.585Z,93.50
2018-11-29T13:57:27.866Z,93.30
2018-11-29T14:00:31.297Z,92.90
2018-11-29T14:03:34.724Z,93.30
2018-11-29T14:06:38.056Z,92.80
2018-11-29T14:09:41.447Z,92.60
2018-11-29T14:12:45.976Z,92.60
2018-11-29T14:15:49.326Z,93.10
2018-11-29T14:18:52.640Z,92.30
2018-11-29T14:21:55.915Z,91.60
2018-11-29T14:24:59.818Z,91.60
2018-11-29T14:28:02.533Z,91.40
2018-11-29T14:31:05.932Z,91.40
2018-11-29T14:34:09.204Z,91.60
2018-11-29T14:37:12.533Z,91.50
2018-11-29T14:40:19.353Z,91.90
2018-11-29T14:43:22.629Z,92.10
2018-11-29T14:46:25.931Z,91.20
2018-11-29T14:49:29.228Z,91.50
2018-11-29T14:52:32.522Z,91.20
2018-11-29T14:55:36.934Z,91.40
2018-11-29T14:58:40.213Z,91.00
2018-11-29T15:01:43.513Z,90.90
2018-11-29T15:04:46.921Z,91.20
2018-11-29T15:07:50.326Z,90.40
2018-11-29T15:10:53.711Z,90.00
2018-11-29T15:13:58.149Z,89.00
2018-11-29T15:17:01.449Z,88.80
2018-11-29T15:20:14.843Z,87.30
2018-11-29T15:23:19.593Z,85.80
2018-11-29T15:26:22.891Z,85.50
2018-11-29T15:29:26.149Z,85.50
2018-11-29T15:32:29.509Z,85.60
2018-11-29T15:35:32.788Z,83.90
2018-11-29T15:38:36.089Z,82.90
2018-11-29T15:41:39.381Z,82.00
2018-11-29T15:44:42.646Z,82.90
2018-11-29T15:47:46.012Z,81.80
2018-11-29T15:50:49.293Z,82.20
2018-11-29T15:53:52.608Z,81.20
2018-11-29T15:56:55.880Z,81.10
2018-11-29T15:59:59.150Z,80.70
2018-11-29T16:03:04.999Z,80.10
2018-11-29T16:06:08.323Z,79.90
2018-11-29T16:09:11.625Z,80.10
2018-11-29T16:12:14.975Z,81.30
2018-11-29T16:15:19.449Z,81.90
2018-11-29T16:18:22.732Z,82.20
2018-11-29T16:21:26.073Z,80.30
2018-11-29T16:24:29.337Z,79.10
2018-11-29T16:27:32.634Z,79.40
2018-11-29T16:30:45.208Z,80.20
2018-11-29T16:33:48.493Z,79.00
2018-11-29T16:36:51.814Z,79.70
2018-11-29T16:39:55.104Z,79.60
2018-11-29T16:42:58.429Z,79.80
2018-11-29T16:46:01.740Z,78.60
2018-11-29T16:49:05.814Z,78.60
2018-11-29T16:52:09.105Z,78.40
2018-11-29T16:55:12.788Z,79.40
2018-11-29T16:58:19.741Z,79.00
2018-11-29T17:01:23.112Z,80.10
2018-11-29T17:04:26.482Z,78.20
2018-11-29T17:07:29.793Z,79.20
2018-11-29T17:10:33.105Z,77.80
2018-11-29T17:13:36.437Z,78.30
2018-11-29T17:16:39.755Z,78.80
2018-11-29T17:19:43.044Z,78.10
2018-11-29T17:22:48.009Z,77.90
2018-11-29T17:25:51.268Z,77.30
2018-11-29T17:28:54.564Z,78.10
2018-11-29T17:31:57.877Z,78.40
2018-11-29T17:35:01.161Z,78.40
2018-11-29T17:38:04.837Z,79.00
2018-11-29T17:41:08.128Z,77.90
2018-11-29T17:44:11.432Z,78.00
2018-11-29T17:47:14.700Z,79.50
2018-11-29T17:50:23.855Z,79.80
2018-11-29T17:53:27.165Z,79.70
2018-11-29T17:56:30.471Z,79.60
2018-11-29T17:59:33.816Z,78.70
2018-11-29T18:02:37.108Z,79.50
2018-11-29T18:05:40.428Z,78.70
2018-11-29T18:08:43.710Z,80.10
2018-11-29T18:11:47.001Z,78.70
2018-11-29T18:14:50.281Z,79.10
2018-11-29T18:17:53.580Z,79.00
2018-11-29T18:20:56.856Z,79.40
2018-11-29T18:24:00.178Z,80.00
2018-11-29T18:27:03.473Z,80.10
2018-11-29T18:30:10.685Z,79.00
2018-11-29T18:33:14.057Z,79.30
2018-11-29T18:36:17.362Z,80.10
2018-11-29T18:39:20.673Z,79.70
2018-11-29T18:42:24.004Z,80.10
2018-11-29T18:45:27.537Z,79.20
2018-11-29T18:48:30.797Z,79.60
2018-11-29T18:51:34.085Z,80.10
2018-11-29T18:54:37.369Z,80.30
2018-11-29T18:57:40.692Z,79.60
2018-11-29T19:00:43.986Z,80.50
2018-11-29T19:03:47.300Z,80.90
2018-11-29T19:06:50.601Z,80.70
2018-11-29T19:09:53.877Z,80.60
2018-11-29T19:13:08.936Z,81.00
2018-11-29T19:16:12.521Z,80.20
2018-11-29T19:19:15.813Z,79.80
2018-11-29T19:22:19.102Z,80.10
2018-11-29T19:25:22.490Z,81.00
2018-11-29T19:28:25.818Z,80.70
2018-11-29T19:31:29.166Z,80.80
2018-11-29T19:34:32.480Z,79.50
2018-11-29T19:37:36.988Z,79.80
2018-11-29T19:40:40.404Z,80.50
2018-11-29T19:43:43.676Z,79.70
2018-11-29T19:46:46.980Z,79.70
2018-11-29T19:49:50.320Z,79.60
2018-11-29T19:52:56.122Z,80.60
2018-11-29T19:56:01.659Z,79.80
2018-11-29T19:59:05.525Z,79.60
2018-11-29T20:02:08.908Z,80.10
2018-11-29T20:05:12.812Z,80.10
2018-11-29T20:08:16.201Z,79.20
2018-11-29T20:11:19.519Z,78.70
2018-11-29T20:14:22.936Z,79.30
2018-11-29T20:17:26.448Z,80.70
2018-11-29T20:20:29.809Z,80.10
2018-11-29T20:23:33.221Z,80.30
2018-11-29T20:26:36.625Z,79.80
2018-11-29T20:29:39.981Z,79.40
2018-11-29T20:32:43.566Z,80.30
2018-11-29T20:35:47.071Z,79.50
2018-11-29T20:38:50.768Z,79.80
2018-11-29T20:41:54.052Z,79.50
2018-11-29T20:44:57.393Z,80.70
2018-11-29T20:48:02.199Z,80.20
2018-11-29T20:51:05.688Z,79.60
2018-11-29T20:54:09.007Z,80.20
2018-11-29T20:57:12.323Z,80.10
2018-11-29T21:00:15.757Z,80.00
2018-11-29T21:03:19.132Z,80.40
2018-11-29T21:06:22.417Z,80.40
2018-11-29T21:09:25.693Z,81.00
2018-11-29T21:12:29.717Z,81.20
2018-11-29T21:15:38.864Z,81.00
2018-11-29T21:18:42.217Z,81.50
2018-11-29T21:21:45.584Z,80.30
2018-11-29T21:24:48.864Z,80.90
2018-11-29T21:27:52.250Z,81.80
2018-11-29T21:30:55.552Z,81.00
2018-11-29T21:33:58.910Z,82.50
2018-11-29T21:37:02.219Z,81.40
2018-11-29T21:40:12.274Z,81.70
2018-11-29T21:43:15.590Z,82.70
2018-11-29T21:46:19.381Z,82.10
2018-11-29T21:49:23.144Z,82.20
2018-11-29T21:52:26.449Z,81.80
2018-11-29T21:55:29.838Z,83.00
2018-11-29T21:58:34.076Z,82.50
2018-11-29T22:01:37.376Z,82.70
2018-11-29T22:04:40.700Z,82.40
2018-11-29T22:07:44.077Z,83.00
2018-11-29T22:10:47.988Z,84.20
2018-11-29T22:13:51.293Z,83.10
2018-11-29T22:16:54.637Z,82.80
2018-11-29T22:19:58.453Z,83.40
2018-11-29T22:23:01.324Z,83.20
2018-11-29T22:26:11.922Z,83.80
2018-11-29T22:29:15.304Z,83.80
2018-11-29T22:32:18.725Z,83.40
2018-11-29T22:35:22.138Z,83.60
2018-11-29T22:38:25.420Z,84.20
2018-11-29T22:41:28.694Z,84.10
2018-11-29T22:44:31.997Z,84.60
2018-11-29T22:47:35.393Z,83.70
2018-11-29T22:50:38.728Z,84.70
2018-11-29T22:53:42.083Z,84.60
2018-11-29T22:56:46.433Z,84.30
2018-11-29T22:59:49.746Z,84.70
2018-11-29T23:02:53.055Z,85.60
2018-11-29T23:05:56.337Z,84.80
2018-11-29T23:08:59.616Z,84.60
2018-11-29T23:12:02.914Z,84.80
2018-11-29T23:15:09.916Z,84.50
2018-11-29T23:18:13.300Z,85.30
2018-11-29T23:21:16.593Z,84.80
2018-11-29T23:24:19.903Z,84.80
2018-11-29T23:27:23.257Z,84.70
2018-11-29T23:30:26.620Z,85.20
2018-11-29T23:33:30.049Z,85.00
2018-11-29T23:36:33.329Z,85.00
2018-11-29T23:39:36.741Z,85.10
2018-11-29T23:42:40.074Z,84.80
2018-11-29T23:45:43.373Z,84.90
2018-11-29T23:48:46.844Z,84.90
2018-11-29T23:51:50.148Z,84.50
2018-11-29T23:54:53.468Z,84.70
2018-11-29T23:57:56.769Z,84.80
